Terminal Aerodrome Forecast
Issued by NWS

Home | Current Version | Previous Version | Text Only | Print | Product List | Glossary Off
Versions: 1 2 3 4 5 6 7 8 9 10 11 12 13 14 15 16 17 18 19 20 21 22 23 24 25 26

000
FTUS43 KABR 240700 AAA
TAFATY
TAF AMD
KATY 240723Z 2407/2506 15015KT P6SM OVC060
     FM241000 15012KT P6SM OVC050
     FM250200 14010KT P6SM OVC025=

USA.gov is the U.S. government's official web portal to all federal, state and local government web resources and services.